Weather observations for the past three days for
Beaumont Municipal Airport
Imperial (Metric)
Date Time (cdt) Wind (mph) Vis. (mi.) Weather Sky Cond. Temperature (ºF) Relative Humidity Wind Chill (°F) Heat Index (°F) Pressure Precipitation (in)
Air Dwpt 6 hour altimeter (in) sea level (mb) 1 hr 3 hr 6 hr
Max. Min.
04 14:35 S 9 10.00 Mostly Cloudy BKN045 BKN050 77.7 57.4 50% 79 29.96 0.0
04 14:15 S 12 G 20 10.00 Mostly Cloudy SCT045 BKN050 76.5 56.7 50% 78 29.96 0.0
04 13:55 S 10 G 18 10.00 Mostly Cloudy SCT043 BKN050 76.6 56.3 50% 78 29.97 0.0
04 13:35 S 8 10.00 Partly Cloudy SCT041 SCT050 77 57.2 51% 79 29.98 0.0
04 13:15 S 14 10.00 Partly Cloudy SCT043 SCT048 SCT050 77 56.8 50% 79 29.98 0.0
04 12:55 S 10 G 17 10.00 Mostly Cloudy BKN043 BKN048 75.7 57.2 77.2 55 53% 78 29.98 0.0
04 12:35 S 10 G 21 10.00 Mostly Cloudy BKN043 BKN050 77 56.7 50% 79 29.99 0.0
04 12:15 S 13 10.00 Mostly Cloudy BKN041 BKN050 76.1 56.3 50% 78 30 0.0
04 11:55 S 13 G 18 10.00 Mostly Cloudy BKN043 BKN050 76.3 55.9 49% 78 30.01 0.0
04 11:35 S 10 G 17 10.00 Mostly Cloudy SCT043 BKN048 74.3 55.9 53% 30.01 0.0
04 11:15 S 10 10.00 Partly Cloudy SCT043 74.7 55.4 51% 30.02 0.0
04 10:55 S 12 10.00 Mostly Cloudy BKN041 74.5 55.8 52% 30.02 0.0
04 10:35 S 10 G 18 10.00 Mostly Cloudy BKN041 75 55.6 51% 78 30.02 0.0
04 10:15 S 10 G 16 10.00 Partly Cloudy SCT036 SCT042 71.6 55.6 57% 30.01 0.0
04 09:55 S 8 10.00 Partly Cloudy SCT035 71.2 55.9 59% 30.02 0.0
04 09:35 S 8 10.00 Fair CLR 71.6 55.8 58% 30.03 0.0
04 09:15 SE 7 10.00 Fair CLR 70.5 55.2 59% 30.02 0.0
04 08:55 SE 3 10.00 Fair CLR 68.7 54.1 60% 30.02 0.0
04 08:35 SE 3 10.00 Fair CLR 67.1 53.4 62% 30.02 0.0
04 08:15 S 3 10.00 Fair CLR 64.2 54.3 70% 30.02 0.0
04 07:55 SE 3 10.00 Fair CLR 61.5 53.1 74% 30.02 0.0
04 07:35 SE 3 10.00 Fair CLR 60.4 53.1 77% 30.02 0.0
04 07:15 SE 3 10.00 Fair CLR 57.4 51.6 81% 30.02 0.0
04 06:55 Calm 10.00 Fair CLR 54.7 51.1 58.1 53.2 88% 30.01 0.0
04 06:35 Calm 10.00 Fair CLR 54.5 50.9 88% 30.02 0.0
04 06:15 Calm 10.00 Fair CLR 54.3 50.9 88% 30.01 0.0
04 05:55 Calm 10.00 Fair CLR 53.8 50.9 90% 30 0.0
04 05:35 Calm 10.00 Fair CLR 56.3 50.7 82% 30.01 0.0
04 05:15 Calm 10.00 Fair CLR 57.2 50 77% 30.02 0.0
04 04:55 S 3 10.00 Fair CLR 57 50 78% 30.01 0.0
04 04:35 S 3 10.00 Fair CLR 57.2 50 77% 30.02 0.0
04 04:15 S 3 10.00 Fair CLR 56.7 50.5 80% 30.01 0.0
04 03:55 S 5 10.00 Fair CLR 57 50.7 80% 30.02 0.0
04 03:35 S 3 10.00 Fair CLR 56.5 50.7 81% 30.02 0.0
04 03:15 Calm 10.00 Fair CLR 55.4 51.8 88% 30.03 0.0
04 02:55 Calm 10.00 Fair CLR 56.5 51.6 84% 30.03 0.0
04 02:35 Calm 10.00 Fair CLR 55.2 52 89% 30.04 0.0
04 02:15 Calm 10.00 Fair CLR 57.9 50.9 78% 30.05 0.0
04 01:55 Calm 10.00 Fair CLR 56.3 50.9 82% 30.06 0.0
04 01:35 Calm 10.00 Fair CLR 57 50.9 80% 30.06 0.0
04 01:15 Calm 10.00 Fair CLR 57.4 50.2 77% 30.07 0.0
04 00:55 Calm 10.00 Fair CLR 56.7 50.7 71.2 56.7 81% 30.08 0.0
04 00:35 S 3 10.00 Fair CLR 57.6 49.8 76% 30.07 0.0
04 00:15 S 3 10.00 Fair CLR 58.8 48.9 70% 30.08 0.0
03 23:55 S 3 10.00 Fair CLR 58.3 48.9 71% 30.07 0.0
03 23:35 S 3 10.00 Fair CLR 59.2 48.4 68% 30.08 0.0
03 23:15 SE 5 10.00 Fair CLR 59 48.6 68% 30.08 0.0
03 22:55 S 5 10.00 Fair CLR 59.4 48.7 68% 30.08 0.0
03 22:35 S 3 10.00 Fair CLR 60.1 49.3 68% 30.08 0.0
03 22:15 S 3 10.00 Fair CLR 60.4 49.3 67% 30.08 0.0
03 21:55 S 3 10.00 Fair CLR 60.8 49.1 66% 30.08 0.0
03 21:35 S 5 10.00 Fair CLR 61.7 49.1 64% 30.08 0.0
03 21:15 S 5 10.00 Fair CLR 61.7 49.1 64% 30.08 0.0
03 20:55 S 5 10.00 Fair CLR 62.6 48.7 61% 30.07 0.0
03 20:35 S 3 10.00 Fair CLR 63.5 48.7 59% 30.08 0.0
03 20:15 S 5 10.00 Fair CLR 64.6 48.9 57% 30.07 0.0
03 19:55 S 6 10.00 Fair CLR 66.2 47.5 51% 30.07 0.0
03 19:35 S 7 10.00 Fair CLR 68.4 46.4 46% 30.07 0.0
03 19:15 S 8 10.00 Fair CLR 70.2 46 42% 30.07 0.0
03 18:55 S 9 10.00 Fair CLR 71.1 45.9 78.3 70.9 41% 30.07 0.0
03 18:35 S 7 10.00 Fair CLR 72 45.7 39% 30.07 0.0
03 18:15 S 8 10.00 Fair CLR 73.4 45.5 37% 30.08 0.0
03 17:55 S 8 10.00 Fair CLR 72.5 45.3 38% 30.08 0.0
03 17:35 S 8 10.00 Fair CLR 74.8 44.6 34% 30.08 0.0
03 17:15 S 10 10.00 Partly Cloudy SCT075 75.9 45.7 34% 78 30.08 0.0
03 16:55 S 7 10.00 Fair CLR 75.9 44.2 32% 77 30.09 0.0
03 16:35 SE 8 10.00 Fair CLR 77.2 44.6 31% 78 30.09 0.0
03 16:15 S 3 10.00 Partly Cloudy SCT080 74.5 42.8 32% 30.1 0.0
03 15:55 SE 6 10.00 Overcast OVC080 76.6 44.1 31% 78 30.11 0.0
03 15:35 Calm 10.00 Mostly Cloudy BKN080 78.3 43.2 29% 78 30.12 0.0
03 15:15 SW 7 10.00 Overcast OVC080 76.5 43.3 31% 78 30.13 0.0
03 14:55 NE 3 10.00 Mostly Cloudy BKN080 76.8 41.7 29% 77 30.14 0.0
03 14:35 Calm 10.00 Partly Cloudy SCT080 75.9 41.2 29% 77 30.15 0.0
03 14:15 S 3 10.00 Partly Cloudy SCT080 76.1 44.1 32% 77 30.15 0.0
03 13:55 S 3 10.00 Partly Cloudy SCT080 76.1 42.1 30% 77 30.16 0.0
03 13:35 S 5 10.00 Fair CLR 75 42.1 31% 77 30.17 0.0
03 13:15 S 3 10.00 Fair CLR 75.9 41.9 30% 77 30.18 0.0
03 12:55 SE 5 10.00 Fair CLR 75.9 44.1 76.3 49.6 32% 77 30.19 0.0
03 12:35 Calm 10.00 Partly Cloudy SCT075 75 41 29% 77 30.2 0.0
03 12:15 E 3 10.00 Fair CLR 74.7 42.3 31% 30.2 0.0
03 11:55 S 6 10.00 Fair CLR 74.5 43.9 34% 30.21 0.0
03 11:35 Calm 10.00 Fair CLR 73.9 41.4 31% 30.21 0.0
03 11:15 Calm 10.00 Fair CLR 73.6 42.4 33% 30.21 0.0
03 10:55 SE 6 10.00 Fair CLR 73 45.9 38% 30.21 0.0
03 10:35 SE 5 10.00 Fair CLR 72.5 45.7 38% 30.2 0.0
03 10:15 SW 3 10.00 Fair CLR 71.6 47.5 42% 30.21 0.0
03 09:55 Calm 10.00 Fair CLR 70.9 46.8 42% 30.21 0.0
03 09:35 S 3 10.00 Fair CLR 70.3 52.5 53% 30.2 0.0
03 09:15 Calm 10.00 Fair CLR 68.4 53.1 58% 30.2 0.0
03 08:55 Calm 10.00 Fair CLR 65.3 55 70% 30.2 0.0
03 08:35 Calm 10.00 Fair CLR 62.2 55.2 78% 30.2 0.0
03 08:15 Calm 10.00 Fair CLR 59.2 54.5 85% 30.2 0.0
03 07:55 Calm 10.00 Fair CLR 55.9 53.2 91% 30.19 0.0
03 07:35 Calm 10.00 Fair CLR 53.1 51.6 95% 30.19 0.0
03 07:15 Calm 10.00 Fair CLR 51.1 49.6 95% 30.18 0.0
03 06:55 Calm 10.00 Fair CLR 49.8 48.6 54.7 49.3 95% 30.17 0.0
03 06:35 Calm 10.00 Fair CLR 50 48.7 95% 30.16 0.0
03 06:15 Calm 10.00 Fair CLR 49.3 47.7 94% 30.16 0.0
03 05:55 Calm 10.00 Fair CLR 50.7 49.1 94% 30.16 0.0
03 05:35 Calm 10.00 Fair CLR 50.4 48.7 94% 30.16 0.0
03 05:15 Calm 10.00 Fair CLR 50.4 48.9 95% 30.15 0.0
03 04:55 Calm 10.00 Fair CLR 50.4 49.1 95% 30.15 0.0
03 04:35 Calm 10.00 Fair CLR 50.9 48.9 93% 30.15 0.0
03 04:15 Calm 10.00 Fair CLR 50.9 49.1 94% 30.15 0.0
03 03:55 Calm 10.00 Fair CLR 51.6 49.3 92% 30.15 0.0
03 03:35 Calm 10.00 Fair CLR 52 50.2 94% 30.14 0.0
03 03:15 Calm 10.00 Fair CLR 52.9 50.4 91% 30.14 0.0
03 02:55 Calm 10.00 Fair CLR 52.9 50.4 91% 30.14 0.0
03 02:35 Calm 10.00 Fair CLR 52.7 50 91% 30.14 0.0
03 02:15 Calm 10.00 Fair CLR 53.4 50.9 91% 30.14 0.0
03 01:55 Calm 10.00 Fair CLR 54 50 87% 30.14 0.0
03 01:35 Calm 10.00 Fair CLR 53.8 51.1 91% 30.15 0.0
03 01:15 Calm 10.00 Fair CLR 54.3 51.3 89% 30.14 0.0
03 00:55 Calm 10.00 Fair CLR 54.5 51.1 71.6 54.5 88% 30.14 0.0
03 00:35 Calm 10.00 Fair CLR 54.7 50.9 87% 30.13 0.0
03 00:15 Calm 10.00 Fair CLR 55.4 50.2 83% 30.13 0.0
02 23:55 Calm 10.00 Fair CLR 56.1 49.6 79% 30.13 0.0
02 23:35 Calm 10.00 Fair CLR 56.5 50.7 81% 30.13 0.0
02 23:15 Calm 10.00 Fair CLR 56.8 49.1 75% 30.13 0.0
02 22:55 Calm 7.00 Fair CLR 56.7 48.7 75% 30.13 0.0
02 22:35 Calm 10.00 Fair CLR 58.5 48.7 70% 30.13 0.0
02 22:15 Calm 10.00 Fair CLR 59 48.9 69% 30.13 0.0
02 21:55 Calm 10.00 Fair CLR 59.5 49.1 69% 30.13 0.0
02 21:35 NE 3 10.00 Fair CLR 63.5 46.2 54% 30.12 0.0
02 21:15 Calm 10.00 Fair CLR 63.5 45.7 52% 30.11 0.0
02 20:55 NE 3 10.00 Fair CLR 64 45.5 51% 30.1 0.0
02 20:35 N 3 10.00 Fair CLR 64.4 45.7 51% 30.09 0.0
02 20:15 N 3 10.00 Fair CLR 65.8 45.1 47% 30.09 0.0
02 19:55 N 3 10.00 Fair CLR 65.7 45.3 48% 30.08 0.0
02 19:35 N 6 10.00 Fair CLR 68.2 43.9 42% 30.08 0.0
02 19:15 N 8 10.00 Fair CLR 70 42.3 37% 30.07 0.0
02 18:55 N 12 10.00 Fair CLR 71.6 42.4 74.5 70.3 35% 30.07 0.0
02 18:35 N 10 10.00 Fair CLR 72.5 42.4 34% 30.06 0.0
02 18:15 N 7 10.00 Fair CLR 73.4 41.2 31% 30.06 0.0
02 17:55 N 10 10.00 Fair CLR 73.8 41.4 31% 30.06 0.0
02 17:35 N 10 10.00 Fair CLR 73.9 41.2 31% 30.06 0.0
02 17:15 N 12 G 16 10.00 Fair CLR 74.1 39.9 29% 30.06 0.0
02 16:55 NE 10 10.00 Fair CLR 74.3 41.2 30% 30.05 0.0
02 16:35 N 9 G 16 10.00 Fair CLR 74.3 39.6 29% 30.05 0.0
02 16:15 N 10 10.00 Fair CLR 74.3 41.7 31% 30.05 0.0
02 15:55 NE 14 G 21 10.00 Fair CLR 74.1 41.4 31% 30.06 0.0
02 15:35 N 15 G 20 10.00 Fair CLR 74.1 41.9 31% 30.06 0.0
02 15:15 NE 8 G 18 10.00 Fair CLR 72.9 41.4 32% 30.07 0.0
02 14:55 N 9 G 17 10.00 Fair CLR 73.2 41 31% 30.08 0.0
02 14:35 N 14 G 21 10.00 Fair CLR 72.9 43.3 35% 30.08 0.0
02 14:15 NE 14 G 17 10.00 Fair CLR 72.3 42.8 35% 30.08 0.0
02 13:55 N 13 G 20 10.00 Fair CLR 71.8 42.1 34% 30.09 0.0
02 13:35 N 14 G 20 10.00 Fair CLR 71.2 44.1 38% 30.1 0.0
02 13:15 NE 14 G 21 10.00 Fair CLR 70.7 43.7 38% 30.1 0.0
02 12:55 NE 15 G 23 10.00 Fair CLR 70.3 43.7 70.3 50 38% 30.11 0.0
02 12:35 NE 14 G 20 10.00 Fair CLR 69.3 44.2 41% 30.11 0.0
02 12:15 N 13 G 23 10.00 Fair CLR 68.9 45.9 44% 30.11 0.0
02 11:55 NE 13 G 23 10.00 Fair CLR 68.7 46.9 46% 30.12 0.0
02 11:35 N 14 G 23 10.00 Fair CLR 67.6 48 50% 30.12 0.0
02 11:15 N 14 G 20 10.00 Fair CLR 66.7 46.6 48% 30.12 0.0
02 10:55 NE 14 G 18 10.00 Fair CLR 65.8 46.9 51% 30.12 0.0
02 10:35 N 12 10.00 Fair CLR 64.6 48.7 57% 30.12 0.0
02 10:15 N 12 G 16 10.00 Fair CLR 64.2 51.3 63% 30.11 0.0
02 09:55 N 13 G 18 10.00 Fair CLR 62.4 50.4 65% 30.11 0.0
02 09:35 N 13 G 17 10.00 Fair CLR 61.5 51.6 70% 30.11 0.0
02 09:15 N 14 10.00 Fair CLR 60.1 51.8 74% 30.1 0.0
02 08:55 N 10 G 18 10.00 Fair CLR 59 51.8 77% 30.09 0.0
02 08:35 N 8 10.00 Partly Cloudy SCT007 SCT012 56.8 52.2 84% 30.08 0.0
02 08:15 N 8 10.00 Partly Cloudy SCT007 54.9 51.4 88% 30.08 0.0
02 07:55 N 8 10.00 Partly Cloudy SCT005 53.2 50.7 91% 30.08 0.0
02 07:35 N 6 10.00 Fair CLR 51.8 50 94% 30.07 0.0
02 07:15 N 5 10.00 Fair CLR 50.7 49.1 94% 30.06 0.0
02 06:55 N 5 10.00 Fair CLR 50 48.4 52.7 50 94% 49 30.05 0.0
02 06:35 N 5 10.00 Fair CLR 50 48.4 94% 49 30.04 0.0
02 06:15 N 7 10.00 Fair CLR 50.2 48.4 94% 30.03 0.0
02 05:55 N 7 10.00 Fair CLR 50 48.4 94% 48 30.03 0.0
02 05:35 N 7 10.00 Fair CLR 50 48.2 94% 48 30.02 0.0
02 05:15 N 6 10.00 Fair CLR 50.4 48 92% 30.01 0.0
02 04:55 N 7 10.00 Fair CLR 50.2 48.2 93% 30 0.0
02 04:35 N 7 10.00 Fair CLR 50.4 48.2 92% 30 0.0
02 04:15 N 6 10.00 Fair CLR 50.2 48.2 93% 30 0.0
02 03:55 N 6 10.00 Fair CLR 50.2 48.2 93% 29.99 0.0
02 03:35 N 6 10.00 Fair CLR 50.4 48.2 92% 29.99 0.0
02 03:15 N 8 10.00 Partly Cloudy SCT060 50.9 48.2 91% 29.99 0.0
02 02:55 N 8 10.00 Overcast OVC060 51.4 48.4 89% 29.99 0.0
02 02:35 NE 8 10.00 Mostly Cloudy SCT011 BKN050 BKN060 51.3 48.4 90% 29.98 0.0
02 02:15 NE 8 10.00 Overcast SCT011 OVC048 51.8 48.4 88% 29.98 0.0
02 01:35 NE 14 G 18 10.00 Overcast BKN013 OVC046 52.2 48.7 88% 29.99 0.0
02 01:15 NE 9 G 18 10.00 Overcast OVC011 52.3 49.1 89% 30 0.0
02 00:55 N 10 G 18 10.00 Overcast OVC009 52.7 50 56.8 52.7 91% 30 0.0
02 00:35 N 13 G 18 10.00 Overcast OVC009 52.7 50.4 92% 30 0.0
02 00:15 N 12 G 21 10.00 Overcast OVC009 52.7 50.4 92% 30 0.0
01 23:55 N 12 G 18 10.00 Overcast OVC009 52.9 50.9 93% 30 0.0
01 23:35 N 12 G 21 10.00 Light Rain OVC007 53.1 51.3 94% 29.98 0.0
01 23:15 N 13 G 18 10.00 Rain OVC010 53.4 51.6 94% 29.95 0.0
01 22:55 N 13 G 20 10.00 Light Rain OVC008 53.6 51.8 94% 29.96 0.0
01 22:35 N 12 10.00 Rain OVC008 53.8 52 94% 29.97 0.0
01 22:15 N 10 10.00 Light Drizzle OVC008 54 52 93% 29.96 0.0
01 21:55 N 9 10.00 Rain OVC008 54.1 52.2 93% 29.95 0.0
01 21:35 NE 9 10.00 Light Rain OVC008 54.3 52.3 93% 29.95 0.0
01 21:15 N 8 G 12 10.00 Light Drizzle OVC008 54.5 52.7 94% 29.93 0.0
01 20:55 N 15 G 21 10.00 Light Rain BKN008 BKN013 OVC055 54.5 52.7 94% 29.89 0.0
01 20:35 NE 13 10.00 Light Rain SCT008 BKN015 OVC090 54.7 52.9 94% 29.87 0.0
01 20:15 N 13 G 17 10.00 Light Rain BKN008 BKN020 OVC075 55.2 53.6 94% 29.86 0.0
01 19:55 N 14 G 18 5.00 Rain BKN008 BKN022 OVC036 55.6 53.8 94% 29.87 0.0
01 19:35 N 16 G 22 10.00 Rain OVC008 56.3 54.5 94% 29.88 0.0
01 19:15 N 15 G 21 10.00 Light Rain OVC006 56.5 54.7 94% 29.85 0.0
01 18:55 NE 13 G 17 10.00 Rain OVC006 56.8 55.4 60.1 56.8 95% 29.86 0.0
01 18:35 NE 10 7.00 Rain OVC006 57.4 55.8 94% 29.86 0.0
01 18:15 N 8 5.00 Heavy Rain OVC006 57.6 55.9 94% 29.88 0.0
01 17:55 N 7 7.00 Rain OVC004 57.4 55.9 95% 29.88 0.0
01 17:35 NE 12 G 16 5.00 Thunderstorm Rain OVC004 57.4 55.9 95% 29.83 0.0
01 17:15 E 8 4.00 Heavy Rain OVC008 57.4 55.9 95% 29.86 0.0
01 16:55 N 9 4.00 Thunderstorm Heavy Rain in Vicinity OVC007 57.7 56.3 95% 29.88 0.0
01 16:35 NE 3 5.00 Thunderstorm Rain in Vicinity OVC007 58.1 56.3 94% 29.88 0.0
01 16:15 NE 7 7.00 Thunderstorm Heavy Rain in Vicinity OVC007 58.1 56.3 94% 29.84 0.0
01 15:55 NE 6 7.00 Thunderstorm Rain in Vicinity OVC007 58.1 56.3 94% 29.83 0.0
01 15:35 E 7 G 20 7.00 Thunderstorm Rain in Vicinity BKN007 OVC022 58.3 56.7 94% 29.8 0.0
01 15:15 NE 10 3.00 Thunderstorm Heavy Rain OVC007 58.5 56.5 93% 29.83 0.0
01 14:55 N 8 G 18 10.00 Thunderstorm Light Rain in Vicinity OVC007 59.2 57 93% 29.86 0.0
Date Time (cdt) Wind (mph) Vis. (mi.) Weather Sky Cond. Air Dwpt Max. Min. Relative Humidity Wind Chill (°F) Heat Index (°F) altimeter (in) sea level (mb) 1 hr 3 hr 6 hr
6 hour
Temperature (ºF) Pressure Precipitation (in)